sensor_id;sensor_type;location;lat;lon;timestamp;temperature;humidity
72772;SHT30;60894;42.544;1.516;2023-05-19T00:02:26;6.90;62.60
72772;SHT30;60894;42.544;1.516;2023-05-19T00:04:59;6.89;62.65
72772;SHT30;60894;42.544;1.516;2023-05-19T00:07:29;7.03;62.05
72772;SHT30;60894;42.544;1.516;2023-05-19T00:09:57;7.07;62.43
72772;SHT30;60894;42.544;1.516;2023-05-19T00:12:25;7.06;62.34
72772;SHT30;60894;42.544;1.516;2023-05-19T00:14:52;7.10;61.97
72772;SHT30;60894;42.544;1.516;2023-05-19T00:17:20;7.04;62.01
72772;SHT30;60894;42.544;1.516;2023-05-19T00:19:48;6.99;63.00
72772;SHT30;60894;42.544;1.516;2023-05-19T00:22:15;7.06;62.34
72772;SHT30;60894;42.544;1.516;2023-05-19T00:24:42;7.21;61.91
72772;SHT30;60894;42.544;1.516;2023-05-19T00:27:09;7.21;61.84
72772;SHT30;60894;42.544;1.516;2023-05-19T00:29:36;7.17;62.17
72772;SHT30;60894;42.544;1.516;2023-05-19T00:32:03;7.16;62.38
72772;SHT30;60894;42.544;1.516;2023-05-19T00:34:30;7.20;62.99
72772;SHT30;60894;42.544;1.516;2023-05-19T00:36:58;7.30;62.84
72772;SHT30;60894;42.544;1.516;2023-05-19T00:39:25;7.26;62.64
72772;SHT30;60894;42.544;1.516;2023-05-19T00:41:52;7.21;62.64
72772;SHT30;60894;42.544;1.516;2023-05-19T00:44:19;7.21;62.33
72772;SHT30;60894;42.544;1.516;2023-05-19T00:46:46;7.20;63.17
72772;SHT30;60894;42.544;1.516;2023-05-19T00:49:13;7.28;62.62
72772;SHT30;60894;42.544;1.516;2023-05-19T00:51:40;7.27;63.42
72772;SHT30;60894;42.544;1.516;2023-05-19T00:54:09;7.13;63.90
72772;SHT30;60894;42.544;1.516;2023-05-19T00:56:36;7.21;63.06
72772;SHT30;60894;42.544;1.516;2023-05-19T00:59:03;7.19;62.98
72772;SHT30;60894;42.544;1.516;2023-05-19T01:01:31;7.17;63.11
72772;SHT30;60894;42.544;1.516;2023-05-19T01:03:58;7.17;63.05
72772;SHT30;60894;42.544;1.516;2023-05-19T01:06:28;7.11;63.68
72772;SHT30;60894;42.544;1.516;2023-05-19T01:08:55;7.03;63.99
72772;SHT30;60894;42.544;1.516;2023-05-19T01:11:24;6.93;64.43
72772;SHT30;60894;42.544;1.516;2023-05-19T01:13:51;6.99;63.35
72772;SHT30;60894;42.544;1.516;2023-05-19T01:16:22;6.99;63.46
72772;SHT30;60894;42.544;1.516;2023-05-19T01:18:55;6.97;62.92
72772;SHT30;60894;42.544;1.516;2023-05-19T01:22:11;6.89;63.25
72772;SHT30;60894;42.544;1.516;2023-05-19T01:25:03;6.86;62.52
72772;SHT30;60894;42.544;1.516;2023-05-19T01:27:49;6.82;62.33
72772;SHT30;60894;42.544;1.516;2023-05-19T01:30:28;6.79;62.31
72772;SHT30;60894;42.544;1.516;2023-05-19T01:32:59;6.72;62.88
72772;SHT30;60894;42.544;1.516;2023-05-19T01:35:26;6.61;62.99
72772;SHT30;60894;42.544;1.516;2023-05-19T01:37:56;6.58;63.22
72772;SHT30;60894;42.544;1.516;2023-05-19T01:40:24;6.52;63.53
72772;SHT30;60894;42.544;1.516;2023-05-19T01:42:53;6.55;64.20
72772;SHT30;60894;42.544;1.516;2023-05-19T01:45:22;6.46;64.90
72772;SHT30;60894;42.544;1.516;2023-05-19T01:47:52;6.53;64.44
72772;SHT30;60894;42.544;1.516;2023-05-19T01:50:20;6.44;64.05
72772;SHT30;60894;42.544;1.516;2023-05-19T01:52:47;6.45;63.41
72772;SHT30;60894;42.544;1.516;2023-05-19T01:55:14;6.44;63.60
72772;SHT30;60894;42.544;1.516;2023-05-19T01:57:53;6.39;63.81
72772;SHT30;60894;42.544;1.516;2023-05-19T02:00:30;6.34;63.60
72772;SHT30;60894;42.544;1.516;2023-05-19T02:03:08;6.27;63.72
72772;SHT30;60894;42.544;1.516;2023-05-19T02:05:40;6.14;64.10
72772;SHT30;60894;42.544;1.516;2023-05-19T02:08:14;6.10;64.31
72772;SHT30;60894;42.544;1.516;2023-05-19T02:10:54;6.13;64.44
72772;SHT30;60894;42.544;1.516;2023-05-19T02:13:28;6.13;64.56
72772;SHT30;60894;42.544;1.516;2023-05-19T02:16:01;6.08;64.75
72772;SHT30;60894;42.544;1.516;2023-05-19T02:18:31;6.07;65.57
72772;SHT30;60894;42.544;1.516;2023-05-19T02:20:59;6.01;65.13
72772;SHT30;60894;42.544;1.516;2023-05-19T02:23:27;6.07;65.23
72772;SHT30;60894;42.544;1.516;2023-05-19T02:25:53;6.10;65.25
72772;SHT30;60894;42.544;1.516;2023-05-19T02:28:20;6.04;65.72
72772;SHT30;60894;42.544;1.516;2023-05-19T02:30:47;6.06;65.11
72772;SHT30;60894;42.544;1.516;2023-05-19T02:33:14;6.14;64.40
72772;SHT30;60894;42.544;1.516;2023-05-19T02:35:45;6.10;65.13
72772;SHT30;60894;42.544;1.516;2023-05-19T02:38:12;6.14;65.81
72772;SHT30;60894;42.544;1.516;2023-05-19T02:40:38;6.17;65.70
72772;SHT30;60894;42.544;1.516;2023-05-19T02:43:05;6.16;66.12
72772;SHT30;60894;42.544;1.516;2023-05-19T02:45:32;6.13;66.20
72772;SHT30;60894;42.544;1.516;2023-05-19T02:47:59;6.14;65.87
72772;SHT30;60894;42.544;1.516;2023-05-19T02:50:26;6.18;65.73
72772;SHT30;60894;42.544;1.516;2023-05-19T02:52:54;6.24;65.53
72772;SHT30;60894;42.544;1.516;2023-05-19T02:55:21;6.25;66.73
72772;SHT30;60894;42.544;1.516;2023-05-19T02:57:48;6.20;67.28
72772;SHT30;60894;42.544;1.516;2023-05-19T03:00:15;6.18;67.63
72772;SHT30;60894;42.544;1.516;2023-05-19T03:02:42;6.25;66.97
72772;SHT30;60894;42.544;1.516;2023-05-19T03:05:09;6.31;65.34
72772;SHT30;60894;42.544;1.516;2023-05-19T03:07:36;6.42;64.33
72772;SHT30;60894;42.544;1.516;2023-05-19T03:10:06;6.42;64.63
72772;SHT30;60894;42.544;1.516;2023-05-19T03:12:33;6.37;64.91
72772;SHT30;60894;42.544;1.516;2023-05-19T03:15:00;6.38;65.20
72772;SHT30;60894;42.544;1.516;2023-05-19T03:17:27;6.35;66.55
72772;SHT30;60894;42.544;1.516;2023-05-19T03:19:58;6.38;66.48
72772;SHT30;60894;42.544;1.516;2023-05-19T03:22:26;6.37;66.32
72772;SHT30;60894;42.544;1.516;2023-05-19T03:24:52;6.39;66.75
72772;SHT30;60894;42.544;1.516;2023-05-19T03:27:21;6.52;66.85
72772;SHT30;60894;42.544;1.516;2023-05-19T03:29:48;6.42;66.81
72772;SHT30;60894;42.544;1.516;2023-05-19T03:32:17;6.41;66.65
72772;SHT30;60894;42.544;1.516;2023-05-19T03:34:44;6.37;68.05
72772;SHT30;60894;42.544;1.516;2023-05-19T03:37:11;6.34;68.35
72772;SHT30;60894;42.544;1.516;2023-05-19T03:39:38;6.41;67.41
72772;SHT30;60894;42.544;1.516;2023-05-19T03:42:05;6.41;67.49
72772;SHT30;60894;42.544;1.516;2023-05-19T03:44:33;6.34;67.62
72772;SHT30;60894;42.544;1.516;2023-05-19T03:47:00;6.41;67.48
72772;SHT30;60894;42.544;1.516;2023-05-19T03:49:27;6.27;67.16
72772;SHT30;60894;42.544;1.516;2023-05-19T03:51:54;6.27;67.44
72772;SHT30;60894;42.544;1.516;2023-05-19T03:54:21;6.27;67.92
72772;SHT30;60894;42.544;1.516;2023-05-19T03:56:48;6.31;67.72
72772;SHT30;60894;42.544;1.516;2023-05-19T03:59:15;6.25;67.77
72772;SHT30;60894;42.544;1.516;2023-05-19T04:01:44;6.35;68.08
72772;SHT30;60894;42.544;1.516;2023-05-19T04:04:11;6.34;67.88
72772;SHT30;60894;42.544;1.516;2023-05-19T04:06:37;6.27;67.77
72772;SHT30;60894;42.544;1.516;2023-05-19T04:09:10;6.31;67.83
72772;SHT30;60894;42.544;1.516;2023-05-19T04:11:38;6.29;68.56
72772;SHT30;60894;42.544;1.516;2023-05-19T04:14:05;6.31;68.01
72772;SHT30;60894;42.544;1.516;2023-05-19T04:16:32;6.35;67.88
72772;SHT30;60894;42.544;1.516;2023-05-19T04:19:00;6.35;68.27
72772;SHT30;60894;42.544;1.516;2023-05-19T04:21:27;6.42;67.97
72772;SHT30;60894;42.544;1.516;2023-05-19T04:23:54;6.46;68.16
72772;SHT30;60894;42.544;1.516;2023-05-19T04:26:22;6.45;68.75
72772;SHT30;60894;42.544;1.516;2023-05-19T04:28:50;6.52;68.17
72772;SHT30;60894;42.544;1.516;2023-05-19T04:31:18;6.48;67.60
72772;SHT30;60894;42.544;1.516;2023-05-19T04:33:46;6.61;67.31
72772;SHT30;60894;42.544;1.516;2023-05-19T04:36:15;6.56;68.07
72772;SHT30;60894;42.544;1.516;2023-05-19T04:38:45;6.61;68.30
72772;SHT30;60894;42.544;1.516;2023-05-19T04:41:13;6.58;69.40
72772;SHT30;60894;42.544;1.516;2023-05-19T04:43:40;6.64;69.49
72772;SHT30;60894;42.544;1.516;2023-05-19T04:46:09;6.61;69.77
72772;SHT30;60894;42.544;1.516;2023-05-19T04:48:37;6.73;68.62
72772;SHT30;60894;42.544;1.516;2023-05-19T04:51:04;6.90;68.42
72772;SHT30;60894;42.544;1.516;2023-05-19T04:53:33;7.13;67.38
72772;SHT30;60894;42.544;1.516;2023-05-19T04:56:01;7.30;66.29
72772;SHT30;60894;42.544;1.516;2023-05-19T04:58:28;7.34;66.12
72772;SHT30;60894;42.544;1.516;2023-05-19T05:00:55;7.50;65.45
72772;SHT30;60894;42.544;1.516;2023-05-19T05:03:22;7.47;65.21
72772;SHT30;60894;42.544;1.516;2023-05-19T05:05:49;7.47;65.87
72772;SHT30;60894;42.544;1.516;2023-05-19T05:08:16;7.40;66.44
72772;SHT30;60894;42.544;1.516;2023-05-19T05:10:49;7.44;67.01
72772;SHT30;60894;42.544;1.516;2023-05-19T05:13:17;7.50;67.21
72772;SHT30;60894;42.544;1.516;2023-05-19T05:15:45;7.64;66.85
72772;SHT30;60894;42.544;1.516;2023-05-19T05:18:13;7.67;65.69
72772;SHT30;60894;42.544;1.516;2023-05-19T05:20:41;7.69;64.10
72772;SHT30;60894;42.544;1.516;2023-05-19T05:23:09;7.75;64.25
72772;SHT30;60894;42.544;1.516;2023-05-19T05:25:39;7.79;64.86
72772;SHT30;60894;42.544;1.516;2023-05-19T05:28:08;7.79;64.00
72772;SHT30;60894;42.544;1.516;2023-05-19T05:30:35;7.82;63.02
72772;SHT30;60894;42.544;1.516;2023-05-19T05:33:03;7.81;64.11
72772;SHT30;60894;42.544;1.516;2023-05-19T05:35:30;7.78;63.59
72772;SHT30;60894;42.544;1.516;2023-05-19T05:37:57;7.86;64.33
72772;SHT30;60894;42.544;1.516;2023-05-19T05:40:24;7.89;64.23
72772;SHT30;60894;42.544;1.516;2023-05-19T05:42:51;7.89;64.37
72772;SHT30;60894;42.544;1.516;2023-05-19T05:45:21;7.88;65.76
72772;SHT30;60894;42.544;1.516;2023-05-19T05:47:48;7.93;66.61
72772;SHT30;60894;42.544;1.516;2023-05-19T05:50:16;7.95;66.90
72772;SHT30;60894;42.544;1.516;2023-05-19T05:52:45;7.99;66.49
72772;SHT30;60894;42.544;1.516;2023-05-19T05:55:13;7.95;66.85
72772;SHT30;60894;42.544;1.516;2023-05-19T05:57:43;7.98;67.52
72772;SHT30;60894;42.544;1.516;2023-05-19T06:00:11;8.00;67.30
72772;SHT30;60894;42.544;1.516;2023-05-19T06:02:44;8.02;66.23
72772;SHT30;60894;42.544;1.516;2023-05-19T06:05:12;8.33;68.52
72772;SHT30;60894;42.544;1.516;2023-05-19T06:07:39;8.40;64.95
72772;SHT30;60894;42.544;1.516;2023-05-19T06:10:07;8.47;64.70
72772;SHT30;60894;42.544;1.516;2023-05-19T06:12:34;8.50;64.33
72772;SHT30;60894;42.544;1.516;2023-05-19T06:15:05;8.53;64.36
72772;SHT30;60894;42.544;1.516;2023-05-19T06:17:32;8.50;63.81
72772;SHT30;60894;42.544;1.516;2023-05-19T06:20:01;8.50;62.12
72772;SHT30;60894;42.544;1.516;2023-05-19T06:22:30;8.50;62.44
72772;SHT30;60894;42.544;1.516;2023-05-19T06:24:57;8.47;63.36
72772;SHT30;60894;42.544;1.516;2023-05-19T06:27:24;8.61;61.49
72772;SHT30;60894;42.544;1.516;2023-05-19T06:29:51;8.70;62.19
72772;SHT30;60894;42.544;1.516;2023-05-19T06:32:18;8.64;60.93
72772;SHT30;60894;42.544;1.516;2023-05-19T06:34:45;8.68;61.55
72772;SHT30;60894;42.544;1.516;2023-05-19T06:37:20;8.72;61.04
72772;SHT30;60894;42.544;1.516;2023-05-19T06:39:47;8.87;60.92
72772;SHT30;60894;42.544;1.516;2023-05-19T06:42:17;8.92;61.28
72772;SHT30;60894;42.544;1.516;2023-05-19T06:44:47;8.98;60.54
72772;SHT30;60894;42.544;1.516;2023-05-19T06:47:14;9.15;60.00
72772;SHT30;60894;42.544;1.516;2023-05-19T06:49:41;9.16;58.49
72772;SHT30;60894;42.544;1.516;2023-05-19T06:52:08;9.14;58.06
72772;SHT30;60894;42.544;1.516;2023-05-19T06:54:37;9.14;58.60
72772;SHT30;60894;42.544;1.516;2023-05-19T06:57:04;9.04;58.03
72772;SHT30;60894;42.544;1.516;2023-05-19T06:59:31;9.05;58.12
72772;SHT30;60894;42.544;1.516;2023-05-19T07:01:58;9.01;58.11
72772;SHT30;60894;42.544;1.516;2023-05-19T07:04:26;9.28;57.89
72772;SHT30;60894;42.544;1.516;2023-05-19T07:06:53;9.42;56.38
72772;SHT30;60894;42.544;1.516;2023-05-19T07:09:20;9.54;56.27
72772;SHT30;60894;42.544;1.516;2023-05-19T07:11:48;9.60;55.46
72772;SHT30;60894;42.544;1.516;2023-05-19T07:14:16;9.57;55.40
72772;SHT30;60894;42.544;1.516;2023-05-19T07:16:43;9.50;55.69
72772;SHT30;60894;42.544;1.516;2023-05-19T07:19:09;9.59;56.09
72772;SHT30;60894;42.544;1.516;2023-05-19T07:21:36;9.59;56.23
72772;SHT30;60894;42.544;1.516;2023-05-19T07:24:04;9.72;55.75
72772;SHT30;60894;42.544;1.516;2023-05-19T07:26:31;9.93;54.74
72772;SHT30;60894;42.544;1.516;2023-05-19T07:28:59;9.98;54.23
72772;SHT30;60894;42.544;1.516;2023-05-19T07:31:26;10.04;53.93
72772;SHT30;60894;42.544;1.516;2023-05-19T07:33:53;10.04;53.80
72772;SHT30;60894;42.544;1.516;2023-05-19T07:36:20;9.95;53.70
72772;SHT30;60894;42.544;1.516;2023-05-19T07:38:47;10.03;54.24
72772;SHT30;60894;42.544;1.516;2023-05-19T07:41:14;10.00;54.39
72772;SHT30;60894;42.544;1.516;2023-05-19T07:43:41;10.15;53.09
72772;SHT30;60894;42.544;1.516;2023-05-19T07:46:10;9.94;52.94
72772;SHT30;60894;42.544;1.516;2023-05-19T07:48:37;9.89;53.01
72772;SHT30;60894;42.544;1.516;2023-05-19T07:51:03;9.91;52.90
72772;SHT30;60894;42.544;1.516;2023-05-19T07:53:34;9.93;52.83
72772;SHT30;60894;42.544;1.516;2023-05-19T07:56:01;10.05;53.88
72772;SHT30;60894;42.544;1.516;2023-05-19T07:58:28;9.97;53.67
72772;SHT30;60894;42.544;1.516;2023-05-19T08:00:56;10.11;54.33
72772;SHT30;60894;42.544;1.516;2023-05-19T08:03:25;10.24;54.05
72772;SHT30;60894;42.544;1.516;2023-05-19T08:05:52;10.35;53.66
72772;SHT30;60894;42.544;1.516;2023-05-19T08:08:19;10.51;53.29
72772;SHT30;60894;42.544;1.516;2023-05-19T08:10:46;10.61;52.32
72772;SHT30;60894;42.544;1.516;2023-05-19T08:13:13;10.66;52.57
72772;SHT30;60894;42.544;1.516;2023-05-19T08:15:40;10.76;51.68
72772;SHT30;60894;42.544;1.516;2023-05-19T08:18:07;10.68;50.84
72772;SHT30;60894;42.544;1.516;2023-05-19T08:20:35;10.71;51.01
72772;SHT30;60894;42.544;1.516;2023-05-19T08:23:02;10.51;52.09
72772;SHT30;60894;42.544;1.516;2023-05-19T08:25:29;10.73;52.62
72772;SHT30;60894;42.544;1.516;2023-05-19T08:27:56;10.76;52.25
72772;SHT30;60894;42.544;1.516;2023-05-19T08:30:23;10.88;52.28
72772;SHT30;60894;42.544;1.516;2023-05-19T08:32:50;10.83;52.54
72772;SHT30;60894;42.544;1.516;2023-05-19T08:35:17;10.86;52.40
72772;SHT30;60894;42.544;1.516;2023-05-19T08:37:45;10.82;53.06
72772;SHT30;60894;42.544;1.516;2023-05-19T08:40:15;10.83;52.73
72772;SHT30;60894;42.544;1.516;2023-05-19T08:42:43;10.86;52.25
72772;SHT30;60894;42.544;1.516;2023-05-19T08:45:10;10.72;52.76
72772;SHT30;60894;42.544;1.516;2023-05-19T08:47:38;10.56;54.56
72772;SHT30;60894;42.544;1.516;2023-05-19T08:50:07;10.48;52.94
72772;SHT30;60894;42.544;1.516;2023-05-19T08:52:42;10.51;52.93
72772;SHT30;60894;42.544;1.516;2023-05-19T08:55:18;10.68;53.57
72772;SHT30;60894;42.544;1.516;2023-05-19T08:57:50;10.45;53.33
72772;SHT30;60894;42.544;1.516;2023-05-19T09:00:18;10.62;54.89
72772;SHT30;60894;42.544;1.516;2023-05-19T09:02:47;10.75;54.00
72772;SHT30;60894;42.544;1.516;2023-05-19T09:05:15;10.76;53.87
72772;SHT30;60894;42.544;1.516;2023-05-19T09:07:43;11.02;55.15
72772;SHT30;60894;42.544;1.516;2023-05-19T09:10:10;11.03;54.26
72772;SHT30;60894;42.544;1.516;2023-05-19T09:12:42;11.23;54.02
72772;SHT30;60894;42.544;1.516;2023-05-19T09:15:11;11.28;52.73
72772;SHT30;60894;42.544;1.516;2023-05-19T09:17:38;11.00;51.01
72772;SHT30;60894;42.544;1.516;2023-05-19T09:20:06;11.12;52.06
72772;SHT30;60894;42.544;1.516;2023-05-19T09:22:42;11.40;53.26
72772;SHT30;60894;42.544;1.516;2023-05-19T09:25:19;11.43;52.15
72772;SHT30;60894;42.544;1.516;2023-05-19T09:27:49;11.53;51.82
72772;SHT30;60894;42.544;1.516;2023-05-19T09:30:16;11.63;51.34
72772;SHT30;60894;42.544;1.516;2023-05-19T09:32:44;11.74;51.00
72772;SHT30;60894;42.544;1.516;2023-05-19T09:35:11;11.51;50.44
72772;SHT30;60894;42.544;1.516;2023-05-19T09:37:39;11.61;49.17
72772;SHT30;60894;42.544;1.516;2023-05-19T09:40:07;11.58;49.13
72772;SHT30;60894;42.544;1.516;2023-05-19T09:42:36;11.55;50.27
72772;SHT30;60894;42.544;1.516;2023-05-19T09:45:06;11.50;48.27
72772;SHT30;60894;42.544;1.516;2023-05-19T09:47:34;11.61;49.02
72772;SHT30;60894;42.544;1.516;2023-05-19T09:50:04;11.54;49.24
72772;SHT30;60894;42.544;1.516;2023-05-19T09:52:34;11.54;50.17
72772;SHT30;60894;42.544;1.516;2023-05-19T09:55:02;11.74;49.88
72772;SHT30;60894;42.544;1.516;2023-05-19T09:57:35;12.11;48.92
72772;SHT30;60894;42.544;1.516;2023-05-19T10:00:06;12.30;47.80
72772;SHT30;60894;42.544;1.516;2023-05-19T10:02:42;12.23;48.27
72772;SHT30;60894;42.544;1.516;2023-05-19T10:05:11;12.11;48.17
72772;SHT30;60894;42.544;1.516;2023-05-19T10:07:41;11.98;49.12
72772;SHT30;60894;42.544;1.516;2023-05-19T10:10:11;11.73;49.51
72772;SHT30;60894;42.544;1.516;2023-05-19T10:12:39;11.75;49.72
72772;SHT30;60894;42.544;1.516;2023-05-19T10:15:11;11.68;49.15
72772;SHT30;60894;42.544;1.516;2023-05-19T10:17:40;11.54;49.30
72772;SHT30;60894;42.544;1.516;2023-05-19T10:20:08;11.58;49.07
72772;SHT30;60894;42.544;1.516;2023-05-19T10:22:36;11.64;48.62
72772;SHT30;60894;42.544;1.516;2023-05-19T10:25:03;11.70;48.31
72772;SHT30;60894;42.544;1.516;2023-05-19T10:27:32;11.79;47.52
72772;SHT30;60894;42.544;1.516;2023-05-19T10:30:04;12.01;46.42
72772;SHT30;60894;42.544;1.516;2023-05-19T10:32:37;12.50;46.38
72772;SHT30;60894;42.544;1.516;2023-05-19T10:35:19;12.88;45.47
72772;SHT30;60894;42.544;1.516;2023-05-19T10:37:54;12.93;44.98
72772;SHT30;60894;42.544;1.516;2023-05-19T10:40:26;12.76;45.04
72772;SHT30;60894;42.544;1.516;2023-05-19T10:43:04;12.47;45.45
72772;SHT30;60894;42.544;1.516;2023-05-19T10:45:39;12.42;45.86
72772;SHT30;60894;42.544;1.516;2023-05-19T10:48:13;12.52;45.31
72772;SHT30;60894;42.544;1.516;2023-05-19T10:50:42;12.64;45.13
72772;SHT30;60894;42.544;1.516;2023-05-19T10:53:13;12.57;44.10
72772;SHT30;60894;42.544;1.516;2023-05-19T10:55:48;12.53;44.62
72772;SHT30;60894;42.544;1.516;2023-05-19T10:58:35;12.72;43.87
72772;SHT30;60894;42.544;1.516;2023-05-19T11:01:06;12.66;43.77
72772;SHT30;60894;42.544;1.516;2023-05-19T11:03:44;12.77;44.08
72772;SHT30;60894;42.544;1.516;2023-05-19T11:06:25;12.74;44.29
72772;SHT30;60894;42.544;1.516;2023-05-19T11:08:54;12.70;44.09
72772;SHT30;60894;42.544;1.516;2023-05-19T11:11:21;12.67;43.85
72772;SHT30;60894;42.544;1.516;2023-05-19T11:13:50;12.59;43.92
72772;SHT30;60894;42.544;1.516;2023-05-19T11:16:18;12.50;44.35
72772;SHT30;60894;42.544;1.516;2023-05-19T11:18:52;12.50;43.55
72772;SHT30;60894;42.544;1.516;2023-05-19T11:21:19;12.40;44.04
72772;SHT30;60894;42.544;1.516;2023-05-19T11:23:46;12.46;43.78
72772;SHT30;60894;42.544;1.516;2023-05-19T11:26:13;12.56;43.72
72772;SHT30;60894;42.544;1.516;2023-05-19T11:28:40;12.59;43.98
72772;SHT30;60894;42.544;1.516;2023-05-19T11:31:09;12.47;43.91
72772;SHT30;60894;42.544;1.516;2023-05-19T11:33:36;12.61;44.20
72772;SHT30;60894;42.544;1.516;2023-05-19T11:36:06;12.55;43.35
72772;SHT30;60894;42.544;1.516;2023-05-19T11:38:34;12.52;43.42
72772;SHT30;60894;42.544;1.516;2023-05-19T11:41:02;12.43;43.72
72772;SHT30;60894;42.544;1.516;2023-05-19T11:43:29;12.39;44.08
72772;SHT30;60894;42.544;1.516;2023-05-19T11:45:56;12.43;43.70
72772;SHT30;60894;42.544;1.516;2023-05-19T11:48:23;12.42;43.96
72772;SHT30;60894;42.544;1.516;2023-05-19T11:50:51;12.37;43.76
72772;SHT30;60894;42.544;1.516;2023-05-19T11:53:20;12.26;43.87
72772;SHT30;60894;42.544;1.516;2023-05-19T11:55:47;12.25;44.47
72772;SHT30;60894;42.544;1.516;2023-05-19T11:58:14;12.63;43.99
72772;SHT30;60894;42.544;1.516;2023-05-19T12:00:42;12.61;43.75
72772;SHT30;60894;42.544;1.516;2023-05-19T12:03:10;12.55;43.79
72772;SHT30;60894;42.544;1.516;2023-05-19T12:05:41;12.87;43.04
72772;SHT30;60894;42.544;1.516;2023-05-19T12:08:08;12.87;42.81
72772;SHT30;60894;42.544;1.516;2023-05-19T12:10:37;13.03;43.01
72772;SHT30;60894;42.544;1.516;2023-05-19T12:13:05;13.24;42.51
72772;SHT30;60894;42.544;1.516;2023-05-19T12:15:33;13.27;42.82
72772;SHT30;60894;42.544;1.516;2023-05-19T12:18:01;12.93;43.16
72772;SHT30;60894;42.544;1.516;2023-05-19T12:20:29;12.88;43.46
72772;SHT30;60894;42.544;1.516;2023-05-19T12:23:00;12.98;43.24
72772;SHT30;60894;42.544;1.516;2023-05-19T12:25:27;13.35;42.42
72772;SHT30;60894;42.544;1.516;2023-05-19T12:27:58;13.48;42.16
72772;SHT30;60894;42.544;1.516;2023-05-19T12:30:27;13.49;42.37
72772;SHT30;60894;42.544;1.516;2023-05-19T12:32:55;13.73;43.21
72772;SHT30;60894;42.544;1.516;2023-05-19T12:35:25;13.69;42.13
72772;SHT30;60894;42.544;1.516;2023-05-19T12:37:53;14.03;42.24
72772;SHT30;60894;42.544;1.516;2023-05-19T12:40:20;13.79;41.40
72772;SHT30;60894;42.544;1.516;2023-05-19T12:42:48;13.76;42.43
72772;SHT30;60894;42.544;1.516;2023-05-19T12:45:19;13.99;41.53
72772;SHT30;60894;42.544;1.516;2023-05-19T12:47:47;13.95;42.25
72772;SHT30;60894;42.544;1.516;2023-05-19T12:50:14;13.95;42.82
72772;SHT30;60894;42.544;1.516;2023-05-19T12:52:43;13.73;41.94
72772;SHT30;60894;42.544;1.516;2023-05-19T12:55:10;13.93;42.29
72772;SHT30;60894;42.544;1.516;2023-05-19T12:57:39;13.86;42.00
72772;SHT30;60894;42.544;1.516;2023-05-19T13:00:07;13.83;42.00
72772;SHT30;60894;42.544;1.516;2023-05-19T13:02:56;13.66;42.10
72772;SHT30;60894;42.544;1.516;2023-05-19T13:05:23;13.61;42.43
72772;SHT30;60894;42.544;1.516;2023-05-19T13:07:54;13.51;42.92
72772;SHT30;60894;42.544;1.516;2023-05-19T13:10:21;13.54;42.23
72772;SHT30;60894;42.544;1.516;2023-05-19T13:12:50;13.49;42.57
72772;SHT30;60894;42.544;1.516;2023-05-19T13:15:17;13.42;42.26
72772;SHT30;60894;42.544;1.516;2023-05-19T13:17:44;13.35;42.75
72772;SHT30;60894;42.544;1.516;2023-05-19T13:20:13;13.38;42.58
72772;SHT30;60894;42.544;1.516;2023-05-19T13:22:40;13.38;42.51
72772;SHT30;60894;42.544;1.516;2023-05-19T13:25:08;13.55;42.81
72772;SHT30;60894;42.544;1.516;2023-05-19T13:27:35;13.56;42.13
72772;SHT30;60894;42.544;1.516;2023-05-19T13:30:02;13.67;41.81
72772;SHT30;60894;42.544;1.516;2023-05-19T13:32:30;13.69;42.04
72772;SHT30;60894;42.544;1.516;2023-05-19T13:34:57;13.70;42.04
72772;SHT30;60894;42.544;1.516;2023-05-19T13:37:25;13.65;42.30
72772;SHT30;60894;42.544;1.516;2023-05-19T13:39:52;13.70;42.36
72772;SHT30;60894;42.544;1.516;2023-05-19T13:42:19;13.82;42.83
72772;SHT30;60894;42.544;1.516;2023-05-19T13:44:46;13.96;42.29
72772;SHT30;60894;42.544;1.516;2023-05-19T13:47:13;14.07;41.56
72772;SHT30;60894;42.544;1.516;2023-05-19T13:49:40;14.63;40.84
72772;SHT30;60894;42.544;1.516;2023-05-19T13:52:07;15.30;39.51
72772;SHT30;60894;42.544;1.516;2023-05-19T13:54:35;14.93;39.41
72772;SHT30;60894;42.544;1.516;2023-05-19T13:57:03;15.00;39.59
72772;SHT30;60894;42.544;1.516;2023-05-19T13:59:30;14.95;39.85
72772;SHT30;60894;42.544;1.516;2023-05-19T14:01:57;15.29;39.21
72772;SHT30;60894;42.544;1.516;2023-05-19T14:04:24;15.32;38.71
72772;SHT30;60894;42.544;1.516;2023-05-19T14:06:51;15.32;39.06
72772;SHT30;60894;42.544;1.516;2023-05-19T14:09:18;15.08;39.30
72772;SHT30;60894;42.544;1.516;2023-05-19T14:11:47;15.19;39.42
72772;SHT30;60894;42.544;1.516;2023-05-19T14:14:14;14.88;39.56
72772;SHT30;60894;42.544;1.516;2023-05-19T14:16:41;14.88;39.85
72772;SHT30;60894;42.544;1.516;2023-05-19T14:19:10;14.37;40.13
72772;SHT30;60894;42.544;1.516;2023-05-19T14:21:37;14.28;40.74
72772;SHT30;60894;42.544;1.516;2023-05-19T14:24:04;13.75;41.47
72772;SHT30;60894;42.544;1.516;2023-05-19T14:26:31;13.58;41.99
72772;SHT30;60894;42.544;1.516;2023-05-19T14:28:59;13.52;42.06
72772;SHT30;60894;42.544;1.516;2023-05-19T14:31:26;13.49;42.42
72772;SHT30;60894;42.544;1.516;2023-05-19T14:33:53;13.58;42.04
72772;SHT30;60894;42.544;1.516;2023-05-19T14:36:20;13.56;42.21
72772;SHT30;60894;42.544;1.516;2023-05-19T14:38:47;13.34;42.81
72772;SHT30;60894;42.544;1.516;2023-05-19T14:41:14;13.19;43.46
72772;SHT30;60894;42.544;1.516;2023-05-19T14:43:41;13.25;43.08
72772;SHT30;60894;42.544;1.516;2023-05-19T14:46:09;13.03;43.68
72772;SHT30;60894;42.544;1.516;2023-05-19T14:48:36;13.03;43.84
72772;SHT30;60894;42.544;1.516;2023-05-19T14:51:03;12.95;43.79
72772;SHT30;60894;42.544;1.516;2023-05-19T14:53:30;12.53;44.65
72772;SHT30;60894;42.544;1.516;2023-05-19T14:55:57;12.80;44.40
72772;SHT30;60894;42.544;1.516;2023-05-19T14:58:24;12.72;44.60
72772;SHT30;60894;42.544;1.516;2023-05-19T15:00:51;13.12;44.04
72772;SHT30;60894;42.544;1.516;2023-05-19T15:03:19;13.17;43.11
72772;SHT30;60894;42.544;1.516;2023-05-19T15:05:47;13.28;43.41
72772;SHT30;60894;42.544;1.516;2023-05-19T15:08:14;13.17;43.39
72772;SHT30;60894;42.544;1.516;2023-05-19T15:10:41;13.31;43.90
72772;SHT30;60894;42.544;1.516;2023-05-19T15:13:08;13.00;43.39
72772;SHT30;60894;42.544;1.516;2023-05-19T15:15:36;12.83;44.16
72772;SHT30;60894;42.544;1.516;2023-05-19T15:18:03;12.77;44.49
72772;SHT30;60894;42.544;1.516;2023-05-19T15:20:31;12.84;44.36
72772;SHT30;60894;42.544;1.516;2023-05-19T15:22:58;12.64;44.49
72772;SHT30;60894;42.544;1.516;2023-05-19T15:25:25;12.68;44.31
72772;SHT30;60894;42.544;1.516;2023-05-19T15:27:52;12.60;44.41
72772;SHT30;60894;42.544;1.516;2023-05-19T15:30:19;12.56;44.77
72772;SHT30;60894;42.544;1.516;2023-05-19T15:32:46;12.53;45.25
72772;SHT30;60894;42.544;1.516;2023-05-19T15:35:13;12.57;44.81
72772;SHT30;60894;42.544;1.516;2023-05-19T15:37:41;12.36;45.42
72772;SHT30;60894;42.544;1.516;2023-05-19T15:40:09;12.29;45.17
72772;SHT30;60894;42.544;1.516;2023-05-19T15:42:36;12.11;45.94
72772;SHT30;60894;42.544;1.516;2023-05-19T15:45:03;12.02;46.54
72772;SHT30;60894;42.544;1.516;2023-05-19T15:47:32;11.84;46.48